Time;durP1;ratioP1;P1;durP2;ratioP2;P2;SDS_P1;SDS_P2;PMS_P1;PMS_P2;Temp;Humidity;BMP_temperature;BMP_pressure;BME280_temperature;BME280_humidity;BME280_pressure;Samples;Min_cycle;Max_cycle;Signal;HPM_P1;HPM_P2
2023/12/15 00:00:16;;;;;;;;;;;7.20;99.90;;;;;;5071260;28;19924;-80
2023/12/15 00:02:45;;;;;;;;;;;7.20;99.90;;;;;;5066023;28;20355;-79
2023/12/15 00:05:11;;;;;;;;;;;7.20;99.90;;;;;;5070297;28;19932;-80
2023/12/15 00:07:40;;;;;;;;;;;7.20;99.90;;;;;;5063029;28;20009;-81
2023/12/15 00:10:07;;;;;;;;;;;7.20;99.90;;;;;;5060654;28;19925;-80
2023/12/15 00:12:34;;;;;;;;;;;7.20;99.90;;;;;;5067174;28;20013;-80
2023/12/15 00:15:01;;;;;;;;;;;7.20;99.90;;;;;;5065729;28;19970;-81
2023/12/15 00:17:27;;;;;;;;;;;7.20;99.90;;;;;;5068749;28;20452;-80
2023/12/15 00:19:54;;;;;;;;;;;7.20;99.90;;;;;;5069220;28;20379;-80
2023/12/15 00:22:21;;;;;;;;;;;7.20;99.90;;;;;;5072041;28;19928;-79
2023/12/15 00:24:49;;;;;;;;;;;7.20;99.90;;;;;;5069852;28;20062;-80
2023/12/15 00:27:16;;;;;;;;;;;7.20;99.90;;;;;;5068500;28;20002;-80
2023/12/15 00:29:42;;;;;;;;;;;7.20;99.90;;;;;;5068221;28;19925;-80
2023/12/15 00:32:09;;;;;;;;;;;7.20;99.90;;;;;;5068974;28;19924;-82
2023/12/15 00:34:36;;;;;;;;;;;7.20;99.90;;;;;;5070247;28;19928;-83
2023/12/15 00:37:03;;;;;;;;;;;7.20;99.90;;;;;;5074317;28;19931;-84
2023/12/15 00:39:30;;;;;;;;;;;7.20;99.90;;;;;;5072951;28;19925;-85
2023/12/15 00:41:58;;;;;;;;;;;7.20;99.90;;;;;;5075839;28;19967;-83
2023/12/15 00:44:25;;;;;;;;;;;7.20;99.90;;;;;;5076039;28;19925;-83
2023/12/15 00:46:52;;;;;;;;;;;7.20;99.90;;;;;;5062712;28;19978;-83
2023/12/15 00:49:18;;;;;;;;;;;7.30;99.90;;;;;;5071395;28;19924;-83
2023/12/15 00:51:45;;;;;;;;;;;7.20;99.90;;;;;;5074129;28;19970;-83
2023/12/15 00:54:12;;;;;;;;;;;7.30;99.90;;;;;;5066867;28;20399;-85
2023/12/15 00:56:38;;;;;;;;;;;7.20;99.90;;;;;;5074373;28;19925;-84
2023/12/15 00:59:07;;;;;;;;;;;7.20;99.90;;;;;;5071528;28;19978;-82
2023/12/15 01:01:33;;;;;;;;;;;7.20;99.90;;;;;;5076171;28;19947;-83
2023/12/15 01:04:00;;;;;;;;;;;7.20;99.90;;;;;;5074440;28;19928;-83
2023/12/15 01:06:27;;;;;;;;;;;7.30;99.90;;;;;;5072205;28;19931;-82
2023/12/15 01:08:53;;;;;;;;;;;7.20;99.90;;;;;;5072362;28;21014;-83
2023/12/15 01:11:20;;;;;;;;;;;7.20;99.90;;;;;;5069417;28;19925;-82
2023/12/15 01:13:47;;;;;;;;;;;7.20;99.90;;;;;;5074276;28;20340;-81
2023/12/15 01:16:15;;;;;;;;;;;7.20;99.90;;;;;;5074384;28;19962;-82
2023/12/15 01:18:42;;;;;;;;;;;7.20;99.90;;;;;;5074650;28;19932;-81
2023/12/15 01:21:08;;;;;;;;;;;7.20;99.90;;;;;;5077882;28;19924;-82
2023/12/15 01:23:36;;;;;;;;;;;7.20;99.90;;;;;;5081075;28;19932;-81
2023/12/15 01:26:03;;;;;;;;;;;7.20;99.90;;;;;;5073368;28;20452;-80
2023/12/15 01:28:30;;;;;;;;;;;7.20;99.90;;;;;;5072960;28;19925;-83
2023/12/15 01:31:01;;;;;;;;;;;7.20;99.90;;;;;;5075291;28;19924;-83
2023/12/15 01:33:29;;;;;;;;;;;7.20;99.90;;;;;;5073527;28;20022;-82
2023/12/15 01:35:56;;;;;;;;;;;7.20;99.90;;;;;;5071554;28;20453;-82
2023/12/15 01:38:22;;;;;;;;;;;7.20;99.90;;;;;;5073156;28;19968;-82
2023/12/15 01:40:49;;;;;;;;;;;7.10;99.90;;;;;;5073884;28;19924;-82
2023/12/15 01:43:16;;;;;;;;;;;7.20;99.90;;;;;;5074589;28;19928;-84
2023/12/15 01:45:43;;;;;;;;;;;7.10;99.90;;;;;;5084305;28;19924;-83
2023/12/15 01:48:10;;;;;;;;;;;7.20;99.90;;;;;;5073467;28;19925;-82
2023/12/15 01:50:39;;;;;;;;;;;7.20;99.90;;;;;;5073143;28;19924;-82
2023/12/15 01:53:05;;;;;;;;;;;7.20;99.90;;;;;;5074776;28;19986;-82
2023/12/15 01:55:32;;;;;;;;;;;7.20;99.90;;;;;;5070188;28;19928;-82
2023/12/15 01:57:59;;;;;;;;;;;7.20;99.90;;;;;;5070029;28;19978;-82
2023/12/15 02:00:26;;;;;;;;;;;7.20;99.90;;;;;;5065205;28;19929;-82
2023/12/15 02:02:52;;;;;;;;;;;7.30;99.90;;;;;;5077032;28;19924;-83
2023/12/15 02:05:19;;;;;;;;;;;7.30;99.90;;;;;;5066341;28;19924;-83
2023/12/15 02:07:47;;;;;;;;;;;7.20;99.90;;;;;;5063536;28;19986;-81
2023/12/15 02:10:14;;;;;;;;;;;7.20;99.90;;;;;;5068101;28;19924;-79
2023/12/15 02:12:41;;;;;;;;;;;7.30;99.90;;;;;;5067879;28;20049;-80
2023/12/15 02:15:09;;;;;;;;;;;7.30;99.90;;;;;;5073718;28;19925;-81
2023/12/15 02:17:35;;;;;;;;;;;7.30;99.90;;;;;;5071565;28;19990;-81
2023/12/15 02:20:02;;;;;;;;;;;7.30;99.90;;;;;;5064500;28;20341;-82
2023/12/15 02:22:30;;;;;;;;;;;7.30;99.90;;;;;;5073012;28;20334;-82
2023/12/15 02:24:57;;;;;;;;;;;7.30;99.90;;;;;;5056930;28;20328;-81
2023/12/15 02:27:24;;;;;;;;;;;7.30;99.90;;;;;;5067155;28;19968;-82
2023/12/15 02:29:50;;;;;;;;;;;7.30;99.90;;;;;;5067977;28;19936;-82
2023/12/15 02:32:17;;;;;;;;;;;7.30;99.90;;;;;;5071022;28;19924;-82
2023/12/15 02:34:44;;;;;;;;;;;7.40;99.90;;;;;;5067659;28;19932;-82
2023/12/15 02:37:11;;;;;;;;;;;7.30;99.90;;;;;;5071084;28;19936;-82
2023/12/15 02:39:40;;;;;;;;;;;7.40;99.90;;;;;;5070320;28;19925;-81
2023/12/15 02:42:06;;;;;;;;;;;7.40;99.90;;;;;;5067522;28;20449;-82
2023/12/15 02:44:34;;;;;;;;;;;7.40;99.90;;;;;;5072576;28;20433;-82
2023/12/15 02:47:00;;;;;;;;;;;7.50;99.90;;;;;;5061271;28;19925;-82
2023/12/15 02:49:27;;;;;;;;;;;7.40;99.90;;;;;;5062808;28;19925;-82
2023/12/15 02:51:54;;;;;;;;;;;7.40;99.90;;;;;;5068770;28;20346;-82
2023/12/15 02:54:20;;;;;;;;;;;7.50;99.90;;;;;;5065904;28;19936;-81
2023/12/15 02:56:48;;;;;;;;;;;7.50;99.90;;;;;;5070515;28;19924;-80
2023/12/15 02:59:15;;;;;;;;;;;7.50;99.90;;;;;;5070230;28;20350;-81
2023/12/15 03:01:42;;;;;;;;;;;7.50;99.90;;;;;;5068865;28;19982;-78
2023/12/15 03:04:09;;;;;;;;;;;7.50;99.90;;;;;;5066470;28;19928;-79
2023/12/15 03:06:35;;;;;;;;;;;7.50;99.90;;;;;;5070278;28;19993;-79
2023/12/15 03:09:02;;;;;;;;;;;7.50;99.90;;;;;;5066442;28;19925;-79
2023/12/15 03:11:29;;;;;;;;;;;7.50;99.90;;;;;;5055034;28;19999;-79
2023/12/15 03:13:57;;;;;;;;;;;7.60;99.90;;;;;;5077099;28;20429;-82
2023/12/15 03:16:24;;;;;;;;;;;7.60;99.90;;;;;;5073245;28;19991;-81
2023/12/15 03:18:50;;;;;;;;;;;7.60;99.90;;;;;;5057445;28;20023;-80
2023/12/15 03:21:16;;;;;;;;;;;7.60;99.90;;;;;;5075397;28;19976;-80
2023/12/15 03:23:43;;;;;;;;;;;7.60;99.90;;;;;;5072930;28;19963;-80
2023/12/15 03:26:10;;;;;;;;;;;7.60;99.90;;;;;;5066848;28;19925;-80
2023/12/15 03:28:38;;;;;;;;;;;7.60;99.90;;;;;;5076050;28;19928;-81
2023/12/15 03:31:07;;;;;;;;;;;7.70;99.90;;;;;;5077825;28;19931;-81
2023/12/15 03:33:34;;;;;;;;;;;7.70;99.90;;;;;;5063772;28;20383;-82
2023/12/15 03:36:00;;;;;;;;;;;7.70;99.90;;;;;;5061592;28;19932;-81
2023/12/15 03:38:27;;;;;;;;;;;7.70;99.90;;;;;;5072932;28;19959;-82
2023/12/15 03:40:54;;;;;;;;;;;7.70;99.90;;;;;;5074866;28;20341;-80
2023/12/15 03:43:21;;;;;;;;;;;7.70;99.90;;;;;;5070331;28;19924;-81
2023/12/15 03:45:47;;;;;;;;;;;7.70;99.90;;;;;;5075411;28;19974;-79
2023/12/15 03:48:16;;;;;;;;;;;7.70;99.90;;;;;;5072778;28;19924;-79
2023/12/15 03:50:42;;;;;;;;;;;7.70;99.90;;;;;;5075509;28;19962;-79
2023/12/15 03:53:09;;;;;;;;;;;7.80;99.90;;;;;;5075484;28;19963;-80
2023/12/15 03:55:36;;;;;;;;;;;7.80;99.90;;;;;;5074126;28;20303;-79
2023/12/15 03:58:03;;;;;;;;;;;7.80;99.90;;;;;;5072540;28;19925;-80
2023/12/15 04:00:30;;;;;;;;;;;7.80;99.90;;;;;;5071453;28;19924;-80
2023/12/15 04:02:56;;;;;;;;;;;7.80;99.90;;;;;;5066915;28;19981;-79
2023/12/15 04:05:25;;;;;;;;;;;7.80;99.90;;;;;;5072982;28;19970;-81
2023/12/15 04:07:51;;;;;;;;;;;7.80;99.90;;;;;;5073916;28;20387;-81
2023/12/15 04:10:18;;;;;;;;;;;7.80;99.90;;;;;;5071364;28;20001;-80
2023/12/15 04:12:45;;;;;;;;;;;7.80;99.90;;;;;;5074453;28;20013;-81
2023/12/15 04:15:11;;;;;;;;;;;7.80;99.90;;;;;;5075519;28;19956;-81
2023/12/15 04:17:38;;;;;;;;;;;7.80;99.90;;;;;;5074825;28;19925;-81
2023/12/15 04:20:07;;;;;;;;;;;7.80;99.90;;;;;;5070716;28;20295;-81
2023/12/15 04:22:36;;;;;;;;;;;7.80;99.90;;;;;;5060374;28;19932;-81
2023/12/15 04:25:02;;;;;;;;;;;7.80;99.90;;;;;;5073180;28;20383;-81
2023/12/15 04:27:30;;;;;;;;;;;7.80;99.90;;;;;;5070917;28;19924;-81
2023/12/15 04:29:57;;;;;;;;;;;7.90;99.90;;;;;;5064697;28;19925;-84
2023/12/15 04:32:24;;;;;;;;;;;7.90;99.90;;;;;;5068174;28;19981;-81
2023/12/15 04:34:51;;;;;;;;;;;7.90;99.90;;;;;;5066753;28;19931;-82
2023/12/15 04:37:18;;;;;;;;;;;7.90;99.90;;;;;;5073536;28;19924;-82
2023/12/15 04:39:46;;;;;;;;;;;7.80;99.90;;;;;;5084338;28;19924;-84
2023/12/15 04:42:13;;;;;;;;;;;7.80;99.90;;;;;;5073658;28;19967;-83
2023/12/15 04:44:40;;;;;;;;;;;7.80;99.90;;;;;;5071769;28;20308;-82
2023/12/15 04:47:07;;;;;;;;;;;7.80;99.90;;;;;;5073698;28;19924;-81
2023/12/15 04:49:34;;;;;;;;;;;7.80;99.90;;;;;;5071988;28;19970;-82
2023/12/15 04:52:00;;;;;;;;;;;7.80;99.90;;;;;;5073708;28;20299;-84
2023/12/15 04:54:27;;;;;;;;;;;7.70;99.90;;;;;;5073053;28;20494;-81
2023/12/15 04:56:55;;;;;;;;;;;7.80;99.90;;;;;;5073973;28;19954;-82
2023/12/15 04:59:22;;;;;;;;;;;7.70;99.90;;;;;;5072928;28;19924;-82
2023/12/15 05:01:48;;;;;;;;;;;7.70;99.90;;;;;;5068687;28;19936;-80
2023/12/15 05:04:15;;;;;;;;;;;7.70;99.90;;;;;;5072598;28;20337;-81
2023/12/15 05:06:42;;;;;;;;;;;7.70;99.90;;;;;;5067136;28;19928;-78
2023/12/15 05:09:09;;;;;;;;;;;7.70;99.90;;;;;;5062309;28;19925;-81
2023/12/15 05:11:37;;;;;;;;;;;7.70;99.90;;;;;;5059517;28;20446;-79
2023/12/15 05:14:05;;;;;;;;;;;7.70;99.90;;;;;;5061572;28;20399;-77
2023/12/15 05:16:32;;;;;;;;;;;7.70;99.90;;;;;;5062176;28;19935;-80
2023/12/15 05:18:58;;;;;;;;;;;7.70;99.90;;;;;;5066204;28;20426;-82
2023/12/15 05:21:24;;;;;;;;;;;7.70;99.90;;;;;;5069106;28;20283;-82
2023/12/15 05:23:51;;;;;;;;;;;7.70;99.90;;;;;;5072394;28;20032;-82
2023/12/15 05:26:18;;;;;;;;;;;7.70;99.90;;;;;;5067650;28;19932;-82
2023/12/15 05:28:46;;;;;;;;;;;7.70;99.90;;;;;;5069622;28;20387;-81
2023/12/15 05:31:14;;;;;;;;;;;7.60;99.90;;;;;;5069769;28;20342;-81
2023/12/15 05:33:41;;;;;;;;;;;7.70;99.90;;;;;;5063271;28;19986;-81
2023/12/15 05:36:08;;;;;;;;;;;7.70;99.90;;;;;;5071743;28;19932;-81
2023/12/15 05:38:35;;;;;;;;;;;7.70;99.90;;;;;;5073431;28;19932;-82
2023/12/15 05:41:01;;;;;;;;;;;7.70;99.90;;;;;;5070888;28;19925;-81
2023/12/15 05:43:28;;;;;;;;;;;7.60;99.90;;;;;;5063041;28;19928;-82
2023/12/15 05:45:55;;;;;;;;;;;7.60;99.90;;;;;;5071527;28;19924;-83
2023/12/15 05:48:23;;;;;;;;;;;7.70;99.90;;;;;;5067254;28;19924;-82
2023/12/15 05:50:50;;;;;;;;;;;7.70;99.90;;;;;;5068202;28;19947;-82
2023/12/15 05:53:16;;;;;;;;;;;7.60;99.90;;;;;;5062651;28;19924;-82
2023/12/15 05:55:43;;;;;;;;;;;7.70;99.90;;;;;;5072398;28;19928;-82
2023/12/15 05:58:10;;;;;;;;;;;7.60;99.90;;;;;;5073226;28;19977;-81
2023/12/15 06:00:37;;;;;;;;;;;7.70;99.90;;;;;;5069422;28;20691;-77
2023/12/15 06:03:04;;;;;;;;;;;7.70;99.90;;;;;;5070965;28;19925;-77
2023/12/15 06:05:34;;;;;;;;;;;7.70;99.90;;;;;;5067494;28;19932;-77
2023/12/15 06:08:01;;;;;;;;;;;7.70;99.90;;;;;;5069885;28;19928;-77
2023/12/15 06:10:27;;;;;;;;;;;7.80;99.90;;;;;;5057049;28;20477;-77
2023/12/15 06:12:54;;;;;;;;;;;7.80;99.90;;;;;;5066320;28;19978;-77
2023/12/15 06:15:21;;;;;;;;;;;7.80;99.90;;;;;;5072379;28;19954;-77
2023/12/15 06:17:47;;;;;;;;;;;7.80;99.90;;;;;;5062412;28;19982;-79
2023/12/15 06:20:14;;;;;;;;;;;7.80;99.90;;;;;;5069513;28;19924;-77
2023/12/15 06:22:42;;;;;;;;;;;7.80;99.90;;;;;;5085006;28;19974;-76
2023/12/15 06:25:10;;;;;;;;;;;7.80;99.90;;;;;;5074189;28;19970;-76
2023/12/15 06:27:36;;;;;;;;;;;7.90;99.90;;;;;;5071372;28;20026;-77
2023/12/15 06:30:03;;;;;;;;;;;7.90;99.90;;;;;;5073809;28;19924;-77
2023/12/15 06:32:30;;;;;;;;;;;7.90;99.90;;;;;;5069011;28;20002;-77
2023/12/15 06:34:57;;;;;;;;;;;7.80;99.90;;;;;;5076671;28;20052;-79
2023/12/15 06:37:23;;;;;;;;;;;7.90;99.90;;;;;;5075130;28;19986;-74
2023/12/15 06:39:52;;;;;;;;;;;7.80;99.90;;;;;;5065629;28;19924;-75
2023/12/15 06:42:18;;;;;;;;;;;7.90;99.90;;;;;;5070005;28;19925;-74
2023/12/15 06:44:46;;;;;;;;;;;7.90;99.90;;;;;;5069783;28;19970;-75
2023/12/15 06:47:13;;;;;;;;;;;7.90;99.90;;;;;;5071521;28;19928;-75
2023/12/15 06:49:40;;;;;;;;;;;7.90;99.90;;;;;;5069617;28;19925;-76
2023/12/15 06:52:07;;;;;;;;;;;7.90;99.90;;;;;;5058150;28;20397;-74
2023/12/15 06:54:34;;;;;;;;;;;7.90;99.90;;;;;;5069084;28;19924;-75
2023/12/15 06:57:02;;;;;;;;;;;7.90;99.90;;;;;;5073401;28;19998;-75
2023/12/15 06:59:29;;;;;;;;;;;7.90;99.90;;;;;;5061868;28;20291;-76
2023/12/15 07:01:56;;;;;;;;;;;7.80;99.90;;;;;;5068404;28;19931;-75
2023/12/15 07:04:23;;;;;;;;;;;7.80;99.90;;;;;;5072346;28;19924;-74
2023/12/15 07:06:49;;;;;;;;;;;7.90;99.90;;;;;;5074053;28;19977;-74
2023/12/15 07:09:16;;;;;;;;;;;7.80;99.90;;;;;;5058466;28;20027;-74
2023/12/15 07:11:43;;;;;;;;;;;7.80;99.90;;;;;;5070178;28;19986;-74
2023/12/15 07:14:11;;;;;;;;;;;7.80;99.90;;;;;;5073311;28;20307;-74
2023/12/15 07:16:38;;;;;;;;;;;7.80;99.90;;;;;;5070587;28;19951;-73
2023/12/15 07:19:04;;;;;;;;;;;7.80;99.90;;;;;;5072467;28;19931;-74
2023/12/15 07:21:31;;;;;;;;;;;7.80;99.90;;;;;;5072210;28;19967;-73
2023/12/15 07:23:58;;;;;;;;;;;7.80;99.90;;;;;;5070274;28;19936;-78
2023/12/15 07:26:25;;;;;;;;;;;7.90;99.90;;;;;;5081289;28;19924;-77
2023/12/15 07:28:51;;;;;;;;;;;7.90;99.90;;;;;;5081690;28;19970;-79
2023/12/15 07:31:19;;;;;;;;;;;7.90;99.90;;;;;;5070310;28;19929;-79
2023/12/15 07:33:46;;;;;;;;;;;7.90;99.90;;;;;;5057986;28;19970;-79
2023/12/15 07:36:13;;;;;;;;;;;7.90;99.90;;;;;;5075974;28;19931;-80
2023/12/15 07:38:40;;;;;;;;;;;7.90;99.90;;;;;;5075897;28;19924;-79
2023/12/15 07:41:08;;;;;;;;;;;7.90;99.90;;;;;;5087270;28;19924;-81
2023/12/15 07:43:35;;;;;;;;;;;7.90;99.90;;;;;;5082328;28;19924;-81
2023/12/15 07:46:02;;;;;;;;;;;7.90;99.90;;;;;;5075552;28;19978;-81
2023/12/15 07:48:30;;;;;;;;;;;7.90;99.90;;;;;;5076301;28;19924;-82
2023/12/15 07:50:57;;;;;;;;;;;7.90;99.90;;;;;;5075654;28;19924;-77
2023/12/15 07:53:24;;;;;;;;;;;7.90;99.90;;;;;;5078211;28;19924;-81
2023/12/15 07:55:50;;;;;;;;;;;8.00;99.90;;;;;;5075587;28;19970;-80
2023/12/15 07:58:19;;;;;;;;;;;7.90;99.90;;;;;;5071436;28;20418;-81
2023/12/15 08:00:46;;;;;;;;;;;8.00;99.90;;;;;;5066148;28;20360;-83
2023/12/15 08:03:12;;;;;;;;;;;7.90;99.90;;;;;;5074702;28;19970;-79
2023/12/15 08:05:40;;;;;;;;;;;7.90;99.90;;;;;;5070514;28;20011;-75
2023/12/15 08:08:07;;;;;;;;;;;7.90;99.90;;;;;;5067496;28;19924;-74
2023/12/15 08:10:34;;;;;;;;;;;7.90;99.90;;;;;;5057949;28;19928;-79
2023/12/15 08:13:01;;;;;;;;;;;8.00;99.90;;;;;;5064168;28;20383;-79
2023/12/15 08:15:27;;;;;;;;;;;8.00;99.90;;;;;;5061307;28;19928;-80
2023/12/15 08:17:54;;;;;;;;;;;8.00;99.90;;;;;;5072118;28;20280;-81
2023/12/15 08:20:21;;;;;;;;;;;8.00;99.90;;;;;;5069300;28;19924;-81
2023/12/15 08:22:49;;;;;;;;;;;8.00;99.90;;;;;;5071487;28;20028;-84
2023/12/15 08:25:16;;;;;;;;;;;8.00;99.90;;;;;;5071487;28;19924;-80
2023/12/15 08:27:43;;;;;;;;;;;8.00;99.90;;;;;;5068011;28;20051;-78
2023/12/15 08:30:10;;;;;;;;;;;8.00;99.90;;;;;;5070237;28;19986;-80
2023/12/15 08:32:37;;;;;;;;;;;8.00;99.90;;;;;;5061331;28;19924;-79
2023/12/15 08:35:04;;;;;;;;;;;8.10;99.90;;;;;;5070956;28;19956;-79
2023/12/15 08:37:30;;;;;;;;;;;8.10;99.90;;;;;;5065418;28;19951;-80
2023/12/15 08:39:58;;;;;;;;;;;8.10;99.90;;;;;;5067949;28;19963;-79
2023/12/15 08:42:25;;;;;;;;;;;8.10;99.90;;;;;;5068590;28;19932;-79
2023/12/15 08:44:52;;;;;;;;;;;8.20;99.90;;;;;;5068409;28;19925;-79
2023/12/15 08:47:18;;;;;;;;;;;8.20;99.90;;;;;;5067787;28;19998;-76
2023/12/15 08:49:45;;;;;;;;;;;8.20;99.90;;;;;;5056420;28;19994;-77
2023/12/15 08:52:12;;;;;;;;;;;8.20;99.90;;;;;;5068868;28;19924;-82
2023/12/15 08:54:39;;;;;;;;;;;8.30;99.90;;;;;;5072249;28;19997;-80
2023/12/15 08:57:07;;;;;;;;;;;8.30;99.90;;;;;;5072275;28;19925;-78
2023/12/15 08:59:34;;;;;;;;;;;8.30;99.90;;;;;;5073084;28;19978;-80
2023/12/15 09:02:00;;;;;;;;;;;8.40;99.90;;;;;;5072069;28;19928;-81
2023/12/15 09:04:27;;;;;;;;;;;8.50;99.90;;;;;;5070147;28;19974;-78
2023/12/15 09:06:54;;;;;;;;;;;8.50;99.90;;;;;;5063507;28;19951;-82
2023/12/15 09:09:23;;;;;;;;;;;8.60;99.90;;;;;;5057259;28;19947;-80
2023/12/15 09:11:50;;;;;;;;;;;8.60;99.90;;;;;;5068017;28;19989;-81
2023/12/15 09:14:21;;;;;;;;;;;8.70;99.90;;;;;;5073148;28;19924;-81
2023/12/15 09:16:48;;;;;;;;;;;8.70;99.90;;;;;;5073587;28;20332;-82
2023/12/15 09:19:14;;;;;;;;;;;8.70;99.90;;;;;;5065966;28;19933;-82
2023/12/15 09:21:41;;;;;;;;;;;8.70;99.90;;;;;;5060094;28;19986;-82
2023/12/15 09:24:08;;;;;;;;;;;8.80;99.90;;;;;;5067530;28;19970;-82
2023/12/15 09:26:35;;;;;;;;;;;8.80;99.90;;;;;;5064629;28;19979;-81
2023/12/15 09:29:01;;;;;;;;;;;8.90;99.90;;;;;;5066349;28;19925;-82
2023/12/15 09:31:29;;;;;;;;;;;8.90;99.90;;;;;;5059956;28;19925;-82
2023/12/15 09:33:56;;;;;;;;;;;9.00;99.90;;;;;;5073066;28;19970;-84
2023/12/15 09:36:24;;;;;;;;;;;9.00;99.90;;;;;;5073799;28;20276;-84
2023/12/15 09:38:50;;;;;;;;;;;8.90;99.90;;;;;;5071040;28;19924;-82
2023/12/15 09:41:17;;;;;;;;;;;9.00;99.90;;;;;;5071966;28;19924;-84
2023/12/15 09:43:44;;;;;;;;;;;9.10;99.90;;;;;;5062749;28;19986;-88
2023/12/15 09:46:11;;;;;;;;;;;9.10;99.90;;;;;;5058240;28;19925;-89
2023/12/15 09:48:39;;;;;;;;;;;9.10;99.90;;;;;;5071232;28;20010;-86
2023/12/15 09:51:08;;;;;;;;;;;9.20;99.90;;;;;;5059820;28;20346;-81
2023/12/15 09:53:35;;;;;;;;;;;9.10;99.90;;;;;;5063521;28;20332;-82
2023/12/15 09:56:03;;;;;;;;;;;9.20;99.90;;;;;;5067132;28;19928;-83
2023/12/15 09:58:29;;;;;;;;;;;9.20;99.90;;;;;;5055994;28;19925;-81
2023/12/15 10:00:56;;;;;;;;;;;9.20;99.90;;;;;;5062264;28;19944;-82
2023/12/15 10:03:23;;;;;;;;;;;9.20;99.90;;;;;;5061296;28;19932;-82
2023/12/15 10:05:51;;;;;;;;;;;9.30;99.90;;;;;;5065763;28;20286;-81
2023/12/15 10:08:22;;;;;;;;;;;9.30;99.90;;;;;;5068862;28;19924;-83
2023/12/15 10:10:49;;;;;;;;;;;9.20;99.90;;;;;;5069787;28;19954;-79
2023/12/15 10:13:16;;;;;;;;;;;9.30;99.90;;;;;;5070131;28;19947;-82
2023/12/15 10:15:43;;;;;;;;;;;9.30;99.90;;;;;;5071760;28;19979;-80
2023/12/15 10:18:13;;;;;;;;;;;9.30;99.90;;;;;;5069948;28;19932;-81
2023/12/15 10:20:40;;;;;;;;;;;9.40;99.90;;;;;;5052872;28;20398;-78
2023/12/15 10:23:08;;;;;;;;;;;9.40;99.90;;;;;;5063674;28;20015;-80
2023/12/15 10:25:35;;;;;;;;;;;9.40;99.90;;;;;;5071084;28;19972;-81
2023/12/15 10:28:03;;;;;;;;;;;9.50;99.90;;;;;;5075507;28;19998;-81
2023/12/15 10:30:30;;;;;;;;;;;9.50;99.90;;;;;;5066886;28;19924;-82
2023/12/15 10:32:58;;;;;;;;;;;9.50;99.90;;;;;;5068291;28;19929;-82
2023/12/15 10:35:24;;;;;;;;;;;9.60;99.90;;;;;;5069370;28;20233;-81
2023/12/15 10:37:51;;;;;;;;;;;9.50;99.90;;;;;;5074322;28;19924;-81
2023/12/15 10:40:20;;;;;;;;;;;9.60;99.90;;;;;;5075642;28;19978;-82
2023/12/15 10:42:47;;;;;;;;;;;9.60;99.90;;;;;;5064466;28;19925;-82
2023/12/15 10:45:15;;;;;;;;;;;9.60;99.90;;;;;;5072319;28;19925;-83
2023/12/15 10:47:41;;;;;;;;;;;9.60;99.90;;;;;;5070541;28;20017;-82
2023/12/15 10:50:09;;;;;;;;;;;9.60;99.90;;;;;;5071476;28;19925;-82
2023/12/15 10:52:36;;;;;;;;;;;9.60;99.90;;;;;;5073996;28;19985;-82
2023/12/15 10:55:06;;;;;;;;;;;9.60;99.90;;;;;;5074254;28;19924;-82
2023/12/15 10:57:34;;;;;;;;;;;9.60;99.90;;;;;;5070507;28;19955;-77
2023/12/15 11:00:02;;;;;;;;;;;9.60;99.90;;;;;;5067010;28;19954;-82
2023/12/15 11:02:31;;;;;;;;;;;9.50;99.90;;;;;;5071911;28;19992;-81
2023/12/15 11:04:59;;;;;;;;;;;9.50;99.90;;;;;;5068896;28;19931;-81
2023/12/15 11:07:26;;;;;;;;;;;9.50;99.90;;;;;;5065907;28;19925;-83
2023/12/15 11:09:52;;;;;;;;;;;9.50;99.90;;;;;;5063849;28;19924;-82
2023/12/15 11:12:21;;;;;;;;;;;9.50;99.90;;;;;;5071049;28;19948;-80
2023/12/15 11:14:53;;;;;;;;;;;9.50;99.90;;;;;;5064995;28;20333;-81
2023/12/15 11:17:20;;;;;;;;;;;9.50;99.90;;;;;;5068376;28;19929;-83
2023/12/15 11:19:49;;;;;;;;;;;9.60;99.90;;;;;;5073938;28;19925;-84
2023/12/15 11:22:17;;;;;;;;;;;9.60;99.90;;;;;;5068962;28;19931;-82
2023/12/15 11:24:44;;;;;;;;;;;9.60;99.90;;;;;;5069147;28;19932;-82
2023/12/15 11:27:12;;;;;;;;;;;9.70;99.90;;;;;;5072356;28;19924;-82
2023/12/15 11:29:39;;;;;;;;;;;9.60;99.90;;;;;;5067643;28;20440;-82
2023/12/15 11:32:24;;;;;;;;;;;9.60;99.90;;;;;;5067150;28;19924;-80
2023/12/15 11:34:52;;;;;;;;;;;9.70;99.90;;;;;;5074266;28;20078;-82
2023/12/15 11:37:21;;;;;;;;;;;9.70;99.90;;;;;;5075198;28;19925;-82
2023/12/15 11:39:49;;;;;;;;;;;9.70;99.90;;;;;;5070398;28;19933;-84
2023/12/15 11:42:16;;;;;;;;;;;9.70;99.90;;;;;;5068136;28;20294;-83
2023/12/15 11:44:44;;;;;;;;;;;9.80;99.90;;;;;;5061371;28;20395;-83
2023/12/15 11:47:12;;;;;;;;;;;9.80;99.90;;;;;;5069359;28;19932;-84
2023/12/15 11:49:42;;;;;;;;;;;9.90;99.90;;;;;;5072223;28;20405;-83
2023/12/15 11:52:11;;;;;;;;;;;9.90;99.90;;;;;;5064855;28;19924;-84
2023/12/15 11:54:37;;;;;;;;;;;10.00;99.90;;;;;;5066667;28;19924;-81
2023/12/15 11:57:05;;;;;;;;;;;10.00;99.90;;;;;;5065443;28;20442;-83
2023/12/15 11:59:35;;;;;;;;;;;10.10;99.90;;;;;;5057494;28;19975;-83
2023/12/15 12:02:02;;;;;;;;;;;10.30;99.90;;;;;;5058926;28;19924;-81
2023/12/15 12:04:30;;;;;;;;;;;10.30;99.90;;;;;;5068252;28;19925;-82
2023/12/15 12:06:57;;;;;;;;;;;10.40;99.90;;;;;;5063945;28;19943;-81
2023/12/15 12:09:25;;;;;;;;;;;10.40;99.90;;;;;;5062605;28;20021;-80
2023/12/15 12:11:55;;;;;;;;;;;10.30;99.90;;;;;;5063143;28;20016;-76
2023/12/15 12:14:22;;;;;;;;;;;10.30;99.90;;;;;;5069503;28;20479;-81
2023/12/15 12:16:51;;;;;;;;;;;10.20;99.90;;;;;;5062950;28;20306;-82
2023/12/15 12:19:18;;;;;;;;;;;10.20;99.90;;;;;;5070159;28;20433;-82
2023/12/15 12:21:46;;;;;;;;;;;10.10;99.90;;;;;;5073056;28;20389;-79
2023/12/15 12:24:13;;;;;;;;;;;10.10;99.90;;;;;;5072495;28;19928;-81
2023/12/15 12:26:41;;;;;;;;;;;10.10;99.90;;;;;;5073854;28;19981;-82
2023/12/15 12:29:08;;;;;;;;;;;10.10;99.90;;;;;;5064094;28;20383;-81
2023/12/15 12:31:34;;;;;;;;;;;10.10;99.90;;;;;;5065624;28;19964;-82
2023/12/15 12:34:01;;;;;;;;;;;10.10;99.90;;;;;;5072189;28;19928;-81
2023/12/15 12:36:28;;;;;;;;;;;10.00;99.90;;;;;;5059398;28;20357;-82
2023/12/15 12:38:55;;;;;;;;;;;10.00;99.90;;;;;;5072626;28;20455;-82
2023/12/15 12:41:23;;;;;;;;;;;10.00;99.90;;;;;;5067185;28;20387;-80
2023/12/15 12:43:51;;;;;;;;;;;10.00;99.90;;;;;;5066253;28;19925;-82
2023/12/15 12:46:18;;;;;;;;;;;10.10;99.90;;;;;;5063256;28;19924;-80
2023/12/15 12:48:46;;;;;;;;;;;10.10;99.90;;;;;;5067180;28;19932;-81
2023/12/15 12:51:17;;;;;;;;;;;10.10;99.90;;;;;;5065998;28;19924;-82
2023/12/15 12:53:45;;;;;;;;;;;10.10;99.90;;;;;;5066893;28;19928;-79
2023/12/15 12:56:12;;;;;;;;;;;10.00;99.90;;;;;;5059176;28;19990;-81
2023/12/15 12:58:39;;;;;;;;;;;10.00;99.90;;;;;;5070607;28;19984;-82
2023/12/15 13:01:07;;;;;;;;;;;10.00;99.90;;;;;;5067403;28;19925;-82
2023/12/15 13:03:34;;;;;;;;;;;9.90;99.90;;;;;;5065523;28;19932;-81
2023/12/15 13:06:00;;;;;;;;;;;9.90;99.90;;;;;;5065224;28;19970;-83
2023/12/15 13:08:27;;;;;;;;;;;9.90;99.90;;;;;;5063005;28;19924;-82
2023/12/15 13:10:54;;;;;;;;;;;9.90;99.90;;;;;;5068719;28;20005;-81
2023/12/15 13:13:22;;;;;;;;;;;9.90;99.90;;;;;;5072360;28;20357;-81
2023/12/15 13:15:49;;;;;;;;;;;9.80;99.90;;;;;;5066575;28;20359;-81
2023/12/15 13:18:17;;;;;;;;;;;9.80;99.90;;;;;;5067660;28;19977;-80
2023/12/15 13:20:43;;;;;;;;;;;9.80;99.90;;;;;;5074403;28;20379;-81
2023/12/15 13:23:10;;;;;;;;;;;9.80;99.90;;;;;;5073497;28;19924;-85
2023/12/15 13:25:37;;;;;;;;;;;9.80;99.90;;;;;;5058768;28;19986;-85
2023/12/15 13:28:05;;;;;;;;;;;9.80;99.90;;;;;;5058930;28;19978;-84
2023/12/15 13:30:32;;;;;;;;;;;9.90;99.90;;;;;;5067463;28;19995;-84
2023/12/15 13:32:59;;;;;;;;;;;9.90;99.90;;;;;;5072917;28;20242;-84
2023/12/15 13:35:27;;;;;;;;;;;9.90;99.90;;;;;;5071848;28;19928;-84
2023/12/15 13:37:54;;;;;;;;;;;9.90;99.90;;;;;;5072676;28;20426;-84
2023/12/15 13:40:21;;;;;;;;;;;9.90;99.90;;;;;;5068684;28;19931;-85
2023/12/15 13:42:48;;;;;;;;;;;9.90;99.90;;;;;;5066096;28;19932;-83
2023/12/15 13:45:15;;;;;;;;;;;9.90;99.90;;;;;;5058797;28;19979;-78
2023/12/15 13:47:42;;;;;;;;;;;9.80;99.90;;;;;;5064413;28;19933;-79
2023/12/15 13:50:09;;;;;;;;;;;9.90;99.90;;;;;;5066054;28;19924;-77
2023/12/15 13:52:37;;;;;;;;;;;9.90;99.90;;;;;;5063418;28;19925;-79
2023/12/15 13:55:04;;;;;;;;;;;9.90;99.90;;;;;;5065112;28;19925;-79
2023/12/15 13:57:32;;;;;;;;;;;9.90;99.90;;;;;;5066333;28;20375;-83
2023/12/15 13:59:58;;;;;;;;;;;9.90;99.90;;;;;;5071260;28;19947;-84
2023/12/15 14:02:25;;;;;;;;;;;9.90;99.90;;;;;;5065882;28;19925;-84
2023/12/15 14:04:52;;;;;;;;;;;9.80;99.90;;;;;;5065870;28;19968;-83
2023/12/15 14:07:21;;;;;;;;;;;9.80;99.90;;;;;;5061962;28;21248;-86
2023/12/15 14:09:49;;;;;;;;;;;9.80;99.90;;;;;;5063013;28;19977;-79
2023/12/15 14:12:15;;;;;;;;;;;9.80;99.90;;;;;;5066157;28;19970;-82
2023/12/15 14:14:43;;;;;;;;;;;9.70;99.90;;;;;;5066170;28;19944;-81
2023/12/15 14:17:10;;;;;;;;;;;9.70;99.90;;;;;;5057998;28;19925;-80
2023/12/15 14:19:38;;;;;;;;;;;9.70;99.90;;;;;;5063619;28;19931;-81
2023/12/15 14:22:07;;;;;;;;;;;9.70;99.90;;;;;;5067699;28;19925;-81
2023/12/15 14:24:33;;;;;;;;;;;9.70;99.90;;;;;;5065629;28;19924;-84
2023/12/15 14:27:02;;;;;;;;;;;9.70;99.90;;;;;;5070040;28;20230;-82